createdAt,value
2017-01-07T00:00:46.354Z,1026.65
2017-01-07T00:01:59.780Z,1026.66
2017-01-07T00:03:13.369Z,1026.67
2017-01-07T00:04:26.871Z,1026.62
2017-01-07T00:05:40.292Z,1026.62
2017-01-07T00:06:53.768Z,1026.65
2017-01-07T00:08:07.207Z,1026.61
2017-01-07T00:09:22.351Z,1026.62
2017-01-07T00:10:35.779Z,1026.66
2017-01-07T00:11:49.637Z,1026.69
2017-01-07T00:13:03.112Z,1026.63
2017-01-07T00:14:17.098Z,1026.57
2017-01-07T00:15:30.529Z,1026.57
2017-01-07T00:16:50.321Z,1026.64
2017-01-07T00:18:03.777Z,1026.62
2017-01-07T00:19:17.273Z,1026.55
2017-01-07T00:20:30.702Z,1026.41
2017-01-07T00:21:44.711Z,1026.4
2017-01-07T00:23:00.505Z,1026.36
2017-01-07T00:24:13.925Z,1026.38
2017-01-07T00:25:27.513Z,1026.43
2017-01-07T00:26:41.390Z,1026.34
2017-01-07T00:27:54.853Z,1026.31
2017-01-07T00:29:08.286Z,1026.33
2017-01-07T00:30:21.849Z,1026.36
2017-01-07T00:31:35.271Z,1026.42
2017-01-07T00:32:48.769Z,1026.4
2017-01-07T00:34:02.177Z,1026.35
2017-01-07T00:35:15.688Z,1026.39
2017-01-07T00:36:29.201Z,1026.4
2017-01-07T00:37:42.638Z,1026.46
2017-01-07T00:38:56.080Z,1026.46
2017-01-07T00:40:09.539Z,1026.43
2017-01-07T00:41:23.049Z,1026.37
2017-01-07T00:42:36.695Z,1026.35
2017-01-07T00:43:50.273Z,1026.35
2017-01-07T00:45:03.779Z,1026.38
2017-01-07T00:46:17.263Z,1026.35
2017-01-07T00:47:30.700Z,1026.35
2017-01-07T00:48:44.160Z,1026.31
2017-01-07T00:49:57.693Z,1026.3
2017-01-07T00:51:11.258Z,1026.31
2017-01-07T00:52:24.784Z,1026.35
2017-01-07T00:53:38.236Z,1026.31
2017-01-07T00:54:51.635Z,1026.32
2017-01-07T00:56:05.041Z,1026.27
2017-01-07T00:57:18.563Z,1026.23
2017-01-07T00:58:32.029Z,1026.28
2017-01-07T00:59:45.488Z,1026.28
2017-01-07T01:00:58.957Z,1026.29
2017-01-07T01:02:12.485Z,1026.2
2017-01-07T01:03:26.347Z,1026.17
2017-01-07T01:04:39.793Z,1026.11
2017-01-07T01:05:53.278Z,1026.13
2017-01-07T01:07:06.839Z,1026.07
2017-01-07T01:08:20.295Z,1026.03
2017-01-07T01:09:33.682Z,1026.03
2017-01-07T01:10:47.130Z,1025.96
2017-01-07T01:12:00.562Z,1025.95
2017-01-07T01:13:14.378Z,1025.93
2017-01-07T01:14:27.811Z,1025.97
2017-01-07T01:15:41.235Z,1026
2017-01-07T01:16:54.656Z,1026.01
2017-01-07T01:18:08.197Z,1025.96
2017-01-07T01:19:22.240Z,1025.93
2017-01-07T01:20:36.673Z,1026.01
2017-01-07T01:21:50.101Z,1025.98
2017-01-07T01:23:03.613Z,1026.01
2017-01-07T01:24:17.100Z,1025.94
2017-01-07T01:25:30.596Z,1025.98
2017-01-07T01:26:44.034Z,1026
2017-01-07T01:27:57.460Z,1026.02
2017-01-07T01:29:10.967Z,1026.01
2017-01-07T01:30:24.400Z,1025.98
2017-01-07T01:31:37.803Z,1025.98
2017-01-07T01:32:51.387Z,1026.02
2017-01-07T01:34:04.924Z,1026.04
2017-01-07T01:35:18.766Z,1026.05
2017-01-07T01:36:32.226Z,1026.04
2017-01-07T01:37:45.665Z,1026.09
2017-01-07T01:39:01.568Z,1026.11
2017-01-07T01:40:15.133Z,1026.13
2017-01-07T01:41:28.571Z,1026.1
2017-01-07T01:42:42.030Z,1026.03
2017-01-07T01:43:55.887Z,1026.02
2017-01-07T01:45:09.380Z,1026.02
2017-01-07T01:46:22.911Z,1026.08
2017-01-07T01:47:36.316Z,1026.07
2017-01-07T01:48:49.753Z,1025.96
2017-01-07T01:50:03.255Z,1025.88
2017-01-07T01:51:16.674Z,1025.89
2017-01-07T01:52:30.099Z,1025.9
2017-01-07T01:53:43.704Z,1025.92
2017-01-07T01:54:57.143Z,1025.91
2017-01-07T01:56:10.602Z,1025.95
2017-01-07T01:57:24.033Z,1025.98
2017-01-07T01:58:37.474Z,1025.99
2017-01-07T01:59:50.917Z,1026.01
2017-01-07T02:01:04.546Z,1025.96
2017-01-07T02:02:18.045Z,1025.96
2017-01-07T02:03:31.456Z,1025.96
2017-01-07T02:04:44.881Z,1025.95
2017-01-07T02:05:58.856Z,1025.97
2017-01-07T02:07:12.278Z,1025.93
2017-01-07T02:08:25.908Z,1025.89
2017-01-07T02:09:39.341Z,1025.87
2017-01-07T02:10:52.979Z,1025.81
2017-01-07T02:12:06.433Z,1025.76
2017-01-07T02:13:19.893Z,1025.77
2017-01-07T02:14:33.303Z,1025.78
2017-01-07T02:15:47.149Z,1025.81
2017-01-07T02:17:00.697Z,1025.74
2017-01-07T02:18:14.098Z,1025.72
2017-01-07T02:19:27.549Z,1025.63
2017-01-07T02:20:40.974Z,1025.6
2017-01-07T02:21:54.610Z,1025.66
2017-01-07T02:23:08.527Z,1025.66
2017-01-07T02:24:21.968Z,1025.68
2017-01-07T02:25:35.441Z,1025.64
2017-01-07T02:26:48.942Z,1025.72
2017-01-07T02:28:02.354Z,1025.76
2017-01-07T02:29:15.913Z,1025.83
2017-01-07T02:30:29.515Z,1025.81
2017-01-07T02:31:42.916Z,1025.83
2017-01-07T02:32:56.434Z,1025.73
2017-01-07T02:34:09.859Z,1025.73
2017-01-07T02:35:24.306Z,1025.67
2017-01-07T02:36:37.729Z,1025.69
2017-01-07T02:37:51.315Z,1025.63
2017-01-07T02:39:04.725Z,1025.65
2017-01-07T02:40:18.145Z,1025.64
2017-01-07T02:41:31.682Z,1025.7
2017-01-07T02:42:45.352Z,1025.73
2017-01-07T02:43:58.834Z,1025.69
2017-01-07T02:45:12.269Z,1025.76
2017-01-07T02:46:25.700Z,1025.72
2017-01-07T02:47:39.143Z,1025.75
2017-01-07T02:48:53.085Z,1025.76
2017-01-07T02:50:06.499Z,1025.75
2017-01-07T02:51:20.045Z,1025.81
2017-01-07T02:52:33.479Z,1025.73
2017-01-07T02:53:48.167Z,1025.76
2017-01-07T02:55:03.753Z,1025.77
2017-01-07T02:56:17.214Z,1025.72
2017-01-07T02:57:30.729Z,1025.73
2017-01-07T02:58:44.187Z,1025.7
2017-01-07T02:59:57.617Z,1025.63
2017-01-07T03:01:11.443Z,1025.58
2017-01-07T03:02:24.870Z,1025.58
2017-01-07T03:03:38.391Z,1025.58
2017-01-07T03:04:52.041Z,1025.59
2017-01-07T03:06:05.451Z,1025.59
2017-01-07T03:07:18.885Z,1025.56
2017-01-07T03:08:32.318Z,1025.57
2017-01-07T03:09:45.800Z,1025.61
2017-01-07T03:10:59.252Z,1025.57
2017-01-07T03:12:12.707Z,1025.63
2017-01-07T03:13:26.125Z,1025.62
2017-01-07T03:14:39.634Z,1025.68
2017-01-07T03:15:53.033Z,1025.7
2017-01-07T03:17:06.437Z,1025.68
2017-01-07T03:18:19.952Z,1025.71
2017-01-07T03:19:33.630Z,1025.72
2017-01-07T03:20:47.183Z,1025.69
2017-01-07T03:22:00.573Z,1025.58
2017-01-07T03:23:13.997Z,1025.64
2017-01-07T03:24:27.384Z,1025.73
2017-01-07T03:25:40.907Z,1025.75
2017-01-07T03:26:54.326Z,1025.78
2017-01-07T03:28:07.728Z,1025.78
2017-01-07T03:29:21.166Z,1025.68
2017-01-07T03:30:34.665Z,1025.6
2017-01-07T03:31:48.055Z,1025.58
2017-01-07T03:33:01.434Z,1025.59
2017-01-07T03:34:14.860Z,1025.66
2017-01-07T03:35:28.302Z,1025.64
2017-01-07T03:36:41.825Z,1025.68
2017-01-07T03:37:55.247Z,1025.63
2017-01-07T03:39:09.579Z,1025.54
2017-01-07T03:40:23.433Z,1025.48
2017-01-07T03:41:37.118Z,1025.44
2017-01-07T03:42:50.731Z,1025.43
2017-01-07T03:44:04.197Z,1025.38
2017-01-07T03:45:17.639Z,1025.37
2017-01-07T03:46:31.078Z,1025.34
2017-01-07T03:47:45.100Z,1025.45
2017-01-07T03:48:58.770Z,1025.57
2017-01-07T03:50:12.627Z,1025.55
2017-01-07T03:51:26.054Z,1025.59
2017-01-07T03:52:39.623Z,1025.63
2017-01-07T03:53:53.046Z,1025.65
2017-01-07T03:55:06.880Z,1025.68
2017-01-07T03:56:20.284Z,1025.57
2017-01-07T03:57:33.994Z,1025.55
2017-01-07T03:58:47.468Z,1025.45
2017-01-07T04:00:00.896Z,1025.38
2017-01-07T04:01:14.346Z,1025.38
2017-01-07T04:02:27.997Z,1025.36
2017-01-07T04:03:41.599Z,1025.31
2017-01-07T04:04:55.049Z,1025.28
2017-01-07T04:06:08.505Z,1025.29
2017-01-07T04:07:21.942Z,1025.32
2017-01-07T04:08:35.427Z,1025.28
2017-01-07T04:09:48.957Z,1025.28
2017-01-07T04:11:04.792Z,1025.31
2017-01-07T04:12:18.228Z,1025.41
2017-01-07T04:13:31.718Z,1025.41
2017-01-07T04:14:45.145Z,1025.39
2017-01-07T04:15:58.651Z,1025.36
2017-01-07T04:17:12.072Z,1025.34
2017-01-07T04:18:25.677Z,1025.3
2017-01-07T04:19:39.122Z,1025.22
2017-01-07T04:20:52.530Z,1025.2
2017-01-07T04:22:05.961Z,1025.2
2017-01-07T04:23:19.500Z,1025.25
2017-01-07T04:24:33.072Z,1025.33
2017-01-07T04:25:46.611Z,1025.41
2017-01-07T04:27:00.076Z,1025.46
2017-01-07T04:28:13.500Z,1025.45
2017-01-07T04:29:27.058Z,1025.4
2017-01-07T04:30:40.499Z,1025.41
2017-01-07T04:31:53.968Z,1025.37
2017-01-07T04:33:07.842Z,1025.41
2017-01-07T04:34:21.350Z,1025.46
2017-01-07T04:35:34.754Z,1025.5
2017-01-07T04:36:48.190Z,1025.41
2017-01-07T04:38:01.636Z,1025.29
2017-01-07T04:39:15.080Z,1025.16
2017-01-07T04:40:28.756Z,1025.16
2017-01-07T04:41:42.602Z,1025.26
2017-01-07T04:42:56.035Z,1025.32
2017-01-07T04:44:09.539Z,1025.28
2017-01-07T04:45:23.016Z,1025.22
2017-01-07T04:46:36.871Z,1025.16
2017-01-07T04:47:50.334Z,1025.2
2017-01-07T04:49:03.731Z,1025.24
2017-01-07T04:50:17.272Z,1025.34
2017-01-07T04:51:30.683Z,1025.36
2017-01-07T04:52:44.166Z,1025.35
2017-01-07T04:53:57.897Z,1025.25
2017-01-07T04:55:11.736Z,1025.12
2017-01-07T04:56:26.324Z,1024.98
2017-01-07T04:57:39.803Z,1024.79
2017-01-07T04:58:55.413Z,1024.67
2017-01-07T05:00:09.800Z,1024.68
2017-01-07T05:01:24.381Z,1024.74
2017-01-07T05:02:38.087Z,1024.94
2017-01-07T05:03:54.072Z,1024.97
2017-01-07T05:05:11.137Z,1024.97
2017-01-07T05:06:25.674Z,1024.96
2017-01-07T05:07:40.734Z,1024.87
2017-01-07T05:08:55.159Z,1024.85
2017-01-07T05:10:09.567Z,1024.81
2017-01-07T05:11:23.009Z,1024.75
2017-01-07T05:12:36.439Z,1024.69
2017-01-07T05:13:50.383Z,1024.66
2017-01-07T05:15:03.833Z,1024.76
2017-01-07T05:16:17.354Z,1024.73
2017-01-07T05:17:30.901Z,1024.73
2017-01-07T05:18:44.292Z,1024.63
2017-01-07T05:19:57.691Z,1024.57
2017-01-07T05:21:11.105Z,1024.58
2017-01-07T05:22:25.047Z,1024.54
2017-01-07T05:23:38.792Z,1024.51
2017-01-07T05:24:52.180Z,1024.51
2017-01-07T05:26:05.619Z,1024.47
2017-01-07T05:27:21.246Z,1024.42
2017-01-07T05:28:34.677Z,1024.42
2017-01-07T05:29:48.091Z,1024.49
2017-01-07T05:31:01.528Z,1024.45
2017-01-07T05:32:15.051Z,1024.52
2017-01-07T05:33:28.492Z,1024.52
2017-01-07T05:34:41.918Z,1024.42
2017-01-07T05:35:55.328Z,1024.4
2017-01-07T05:37:08.772Z,1024.36
2017-01-07T05:38:22.463Z,1024.34
2017-01-07T05:39:35.934Z,1024.32
2017-01-07T05:40:49.369Z,1024.3
2017-01-07T05:42:02.776Z,1024.28
2017-01-07T05:43:16.669Z,1024.29
2017-01-07T05:44:30.146Z,1024.3
2017-01-07T05:45:43.693Z,1024.25
2017-01-07T05:46:57.156Z,1024.21
2017-01-07T05:48:10.686Z,1024.29
2017-01-07T05:49:24.133Z,1024.27
2017-01-07T05:50:37.569Z,1024.26
2017-01-07T05:51:51.125Z,1024.26
2017-01-07T05:53:04.647Z,1024.25
2017-01-07T05:54:18.189Z,1024.26
2017-01-07T05:55:31.679Z,1024.26
2017-01-07T05:56:45.814Z,1024.21
2017-01-07T05:57:59.217Z,1024.14
2017-01-07T05:59:12.762Z,1024.13
2017-01-07T06:00:26.297Z,1024.11
2017-01-07T06:01:39.739Z,1024.14
2017-01-07T06:02:53.570Z,1024.15
2017-01-07T06:04:08.291Z,1024.19
2017-01-07T06:05:21.694Z,1024.19
2017-01-07T06:06:35.848Z,1024.17
2017-01-07T06:07:49.260Z,1024.11
2017-01-07T06:09:02.699Z,1024.12
2017-01-07T06:10:16.230Z,1024.07
2017-01-07T06:11:29.691Z,1024.04
2017-01-07T06:12:43.128Z,1024.02
2017-01-07T06:13:56.531Z,1024.01
2017-01-07T06:15:11.285Z,1024.11
2017-01-07T06:16:24.689Z,1024.1
2017-01-07T06:17:38.117Z,1024.06
2017-01-07T06:18:51.530Z,1024.05
2017-01-07T06:20:05.092Z,1024.01
2017-01-07T06:21:18.601Z,1024.04
2017-01-07T06:22:32.022Z,1024.11
2017-01-07T06:23:45.423Z,1024.09
2017-01-07T06:24:58.825Z,1024.05
2017-01-07T06:26:12.620Z,1024.03
2017-01-07T06:27:26.156Z,1024.11
2017-01-07T06:28:39.847Z,1024.16
2017-01-07T06:29:53.259Z,1024.11
2017-01-07T06:31:06.753Z,1024.09
2017-01-07T06:32:20.164Z,1024.09
2017-01-07T06:33:33.625Z,1024.17
2017-01-07T06:34:47.041Z,1024.19
2017-01-07T06:36:00.516Z,1024.27
2017-01-07T06:37:14.126Z,1024.28
2017-01-07T06:38:27.556Z,1024.36
2017-01-07T06:39:40.960Z,1024.37
2017-01-07T06:40:54.368Z,1024.33
2017-01-07T06:42:27.067Z,1024.31
2017-01-07T06:43:42.699Z,1024.26
2017-01-07T06:44:56.254Z,1024.2
2017-01-07T06:46:09.845Z,1024.19
2017-01-07T06:47:23.359Z,1024.14
2017-01-07T06:48:36.791Z,1024.17
2017-01-07T06:49:50.255Z,1024.1
2017-01-07T06:51:03.695Z,1024.07
2017-01-07T06:52:17.245Z,1024.08
2017-01-07T06:53:32.125Z,1024.1
2017-01-07T06:54:46.743Z,1024.15
2017-01-07T06:56:00.606Z,1024.22
2017-01-07T06:57:14.134Z,1024.23
2017-01-07T06:58:27.622Z,1024.22
2017-01-07T06:59:41.085Z,1024.19
2017-01-07T07:00:54.569Z,1024.23
2017-01-07T07:02:08.305Z,1024.27
2017-01-07T07:03:21.774Z,1024.28
2017-01-07T07:04:35.332Z,1024.29
2017-01-07T07:05:48.723Z,1024.28
2017-01-07T07:07:02.228Z,1024.28
2017-01-07T07:08:15.794Z,1024.26
2017-01-07T07:09:29.234Z,1024.22
2017-01-07T07:10:42.826Z,1024.25
2017-01-07T07:11:56.320Z,1024.25
2017-01-07T07:13:11.123Z,1024.31
2017-01-07T07:14:24.569Z,1024.29
2017-01-07T07:15:38.190Z,1024.3
2017-01-07T07:16:51.674Z,1024.27
2017-01-07T07:18:05.299Z,1024.22
2017-01-07T07:19:18.810Z,1024.28
2017-01-07T07:20:32.363Z,1024.33
2017-01-07T07:21:45.860Z,1024.29
2017-01-07T07:22:59.290Z,1024.33
2017-01-07T07:24:12.837Z,1024.36
2017-01-07T07:25:26.241Z,1024.31
2017-01-07T07:26:39.821Z,1024.24
2017-01-07T07:27:53.718Z,1024.16
2017-01-07T07:29:08.496Z,1024.19
2017-01-07T07:30:21.994Z,1024.19
2017-01-07T07:31:35.426Z,1024.2
2017-01-07T07:32:49.414Z,1024.2
2017-01-07T07:34:03.717Z,1024.21
2017-01-07T07:35:17.187Z,1024.17
2017-01-07T07:36:31.079Z,1024.14
2017-01-07T07:37:44.565Z,1024.15
2017-01-07T07:38:58.101Z,1024.11
2017-01-07T07:40:11.691Z,1024.12
2017-01-07T07:41:25.238Z,1024.13
2017-01-07T07:42:38.673Z,1024.11
2017-01-07T07:43:52.156Z,1024.14
2017-01-07T07:45:05.607Z,1024.15
2017-01-07T07:46:19.407Z,1024.2
2017-01-07T07:47:33.679Z,1024.19
2017-01-07T07:48:47.707Z,1024.2
2017-01-07T07:50:01.228Z,1024.15
2017-01-07T07:51:15.122Z,1024.12
2017-01-07T07:52:28.736Z,1024.05
2017-01-07T07:53:42.263Z,1024.09
2017-01-07T07:54:55.740Z,1024.06
2017-01-07T07:56:10.608Z,1024.06
2017-01-07T07:57:24.130Z,1024
2017-01-07T07:58:37.775Z,1024.04
2017-01-07T07:59:53.683Z,1024
2017-01-07T08:01:07.507Z,1024
2017-01-07T08:02:21.079Z,1023.98
2017-01-07T08:03:34.601Z,1023.94
2017-01-07T08:04:48.099Z,1023.9
2017-01-07T08:06:01.786Z,1023.91
2017-01-07T08:07:15.265Z,1023.94
2017-01-07T08:08:28.743Z,1023.97
2017-01-07T08:09:42.437Z,1023.92
2017-01-07T08:10:55.988Z,1023.97
2017-01-07T08:12:10.826Z,1023.97
2017-01-07T08:13:24.327Z,1023.95
2017-01-07T08:14:37.928Z,1023.91
2017-01-07T08:15:51.466Z,1023.92
2017-01-07T08:17:05.004Z,1023.99
2017-01-07T08:18:18.588Z,1023.94
2017-01-07T08:19:32.099Z,1023.99
2017-01-07T08:20:45.586Z,1023.93
2017-01-07T08:21:59.132Z,1023.97
2017-01-07T08:23:12.584Z,1023.94
2017-01-07T08:24:26.119Z,1023.93
2017-01-07T08:25:39.643Z,1023.92
2017-01-07T08:26:53.112Z,1023.9
2017-01-07T08:28:06.790Z,1023.88
2017-01-07T08:29:20.438Z,1023.91
2017-01-07T08:30:34.121Z,1023.94
2017-01-07T08:31:47.572Z,1023.96
2017-01-07T08:33:01.259Z,1024.03
2017-01-07T08:34:14.867Z,1024.08
2017-01-07T08:35:29.052Z,1024.08
2017-01-07T08:36:42.463Z,1024.1
2017-01-07T08:37:57.077Z,1024.14
2017-01-07T08:39:10.668Z,1024.15
2017-01-07T08:40:24.971Z,1024.2
2017-01-07T08:41:38.480Z,1024.21
2017-01-07T08:42:52.746Z,1024.16
2017-01-07T08:44:06.453Z,1024.17
2017-01-07T08:45:19.920Z,1024.16
2017-01-07T08:46:33.484Z,1024.12
2017-01-07T08:47:47.343Z,1024.17
2017-01-07T08:49:00.989Z,1024.1
2017-01-07T08:50:14.496Z,1024.13
2017-01-07T08:51:27.941Z,1024.11
2017-01-07T08:52:41.385Z,1024.07
2017-01-07T08:55:08.444Z,1023.92
2017-01-07T08:56:21.850Z,1023.92
2017-01-07T09:01:24.234Z,1023.86
2017-01-07T09:02:37.662Z,1023.82
2017-01-07T09:03:51.114Z,1023.88
2017-01-07T09:05:04.527Z,1023.88
2017-01-07T09:06:18.391Z,1023.83
2017-01-07T09:07:31.999Z,1023.84
2017-01-07T09:08:45.599Z,1023.82
2017-01-07T09:09:59.025Z,1023.81
2017-01-07T09:11:12.449Z,1023.76
2017-01-07T09:12:25.993Z,1023.68
2017-01-07T09:13:39.429Z,1023.7
2017-01-07T09:14:52.879Z,1023.59
2017-01-07T09:16:06.328Z,1023.58
2017-01-07T09:17:19.859Z,1023.54
2017-01-07T09:18:35.484Z,1023.5
2017-01-07T09:19:48.909Z,1023.56
2017-01-07T09:21:02.439Z,1023.58
2017-01-07T09:22:15.875Z,1023.55
2017-01-07T09:23:29.430Z,1023.59
2017-01-07T09:24:42.916Z,1023.59
2017-01-07T09:25:56.351Z,1023.56
2017-01-07T09:27:09.925Z,1023.52
2017-01-07T09:28:23.473Z,1023.51
2017-01-07T09:29:36.877Z,1023.47
2017-01-07T09:30:50.308Z,1023.5
2017-01-07T09:32:03.722Z,1023.5
2017-01-07T09:33:17.261Z,1023.51
2017-01-07T09:34:30.764Z,1023.52
2017-01-07T09:35:44.182Z,1023.48
2017-01-07T09:36:57.623Z,1023.53
2017-01-07T09:38:11.160Z,1023.53
2017-01-07T09:39:24.891Z,1023.54
2017-01-07T09:40:38.651Z,1023.54
2017-01-07T09:41:52.112Z,1023.62
2017-01-07T09:43:05.553Z,1023.61
2017-01-07T09:44:19.068Z,1023.64
2017-01-07T09:45:32.945Z,1023.68
2017-01-07T09:46:46.395Z,1023.63
2017-01-07T09:47:59.906Z,1023.64
2017-01-07T09:49:13.520Z,1023.67
2017-01-07T09:50:27.121Z,1023.7
2017-01-07T09:51:40.576Z,1023.67
2017-01-07T09:52:54.022Z,1023.66
2017-01-07T09:54:07.845Z,1023.59
2017-01-07T09:55:21.556Z,1023.51
2017-01-07T09:56:35.012Z,1023.46
2017-01-07T09:57:48.423Z,1023.45
2017-01-07T09:59:01.835Z,1023.48
2017-01-07T10:00:15.377Z,1023.46
2017-01-07T10:01:28.986Z,1023.42
2017-01-07T10:02:42.428Z,1023.45
2017-01-07T10:03:57.120Z,1023.46
2017-01-07T10:05:10.692Z,1023.49
2017-01-07T10:06:24.259Z,1023.43
2017-01-07T10:07:38.027Z,1023.4
2017-01-07T10:08:52.665Z,1023.4
2017-01-07T10:10:06.650Z,1023.36
2017-01-07T10:11:20.248Z,1023.29
2017-01-07T10:12:34.747Z,1023.25
2017-01-07T10:13:48.180Z,1023.28
2017-01-07T10:15:01.651Z,1023.21
2017-01-07T10:16:15.231Z,1023.27
2017-01-07T10:17:28.716Z,1023.2
2017-01-07T10:18:42.274Z,1023.16
2017-01-07T10:19:55.736Z,1023.15
2017-01-07T10:21:09.258Z,1023.16
2017-01-07T10:22:22.730Z,1023.16
2017-01-07T10:23:36.207Z,1023.13
2017-01-07T10:24:49.673Z,1023.13
2017-01-07T10:26:03.128Z,1023.12
2017-01-07T10:27:16.732Z,1023.09
2017-01-07T10:28:30.405Z,1023.08
2017-01-07T10:29:44.647Z,1023.04
2017-01-07T10:30:58.081Z,1023.03
2017-01-07T10:32:11.610Z,1023.02
2017-01-07T10:33:25.047Z,1022.97
2017-01-07T10:34:42.592Z,1022.94
2017-01-07T10:35:56.024Z,1022.86
2017-01-07T10:37:09.624Z,1022.84
2017-01-07T10:38:23.070Z,1022.78
2017-01-07T10:39:36.552Z,1022.79
2017-01-07T10:40:49.984Z,1022.81
2017-01-07T10:42:03.473Z,1022.81
2017-01-07T10:43:16.999Z,1022.84
2017-01-07T10:44:30.409Z,1022.78
2017-01-07T10:45:43.826Z,1022.73
2017-01-07T10:46:57.334Z,1022.73
2017-01-07T10:48:10.882Z,1022.7
2017-01-07T10:49:25.055Z,1022.63
2017-01-07T10:50:40.134Z,1022.6
2017-01-07T10:51:53.626Z,1022.58
2017-01-07T10:53:07.182Z,1022.59
2017-01-07T10:54:20.685Z,1022.57
2017-01-07T10:55:34.105Z,1022.55
2017-01-07T10:56:47.542Z,1022.51
2017-01-07T10:58:01.009Z,1022.51
2017-01-07T10:59:14.593Z,1022.48
2017-01-07T11:00:28.019Z,1022.45
2017-01-07T11:01:41.459Z,1022.44
2017-01-07T11:02:54.892Z,1022.39
2017-01-07T11:04:08.428Z,1022.39
2017-01-07T11:05:22.647Z,1022.34
2017-01-07T11:06:36.134Z,1022.35
2017-01-07T11:07:49.562Z,1022.37
2017-01-07T11:09:03.133Z,1022.39
2017-01-07T11:10:16.732Z,1022.28
2017-01-07T11:11:30.168Z,1022.29
2017-01-07T11:12:43.633Z,1022.32
2017-01-07T11:13:57.103Z,1022.27
2017-01-07T11:15:10.652Z,1022.29
2017-01-07T11:16:24.087Z,1022.26
2017-01-07T11:17:37.549Z,1022.29
2017-01-07T11:18:51.845Z,1022.31
2017-01-07T11:20:06.591Z,1022.33
2017-01-07T11:21:20.036Z,1022.26
2017-01-07T11:22:33.501Z,1022.29
2017-01-07T11:23:46.991Z,1022.24
2017-01-07T11:25:00.602Z,1022.21
2017-01-07T11:26:14.026Z,1022.16
2017-01-07T11:27:27.467Z,1022.08
2017-01-07T11:28:40.967Z,1022.05
2017-01-07T11:29:54.472Z,1022
2017-01-07T11:31:07.997Z,1022.03
2017-01-07T11:32:21.459Z,1022.01
2017-01-07T11:33:34.903Z,1021.99
2017-01-07T11:34:48.357Z,1021.99
2017-01-07T11:36:02.042Z,1022.09
2017-01-07T11:37:15.511Z,1022.07
2017-01-07T11:38:29.450Z,1022.1
2017-01-07T11:39:43.339Z,1022.15
2017-01-07T11:40:57.420Z,1022.09
2017-01-07T11:42:10.847Z,1022.04
2017-01-07T11:43:24.309Z,1022.01
2017-01-07T11:44:37.801Z,1022.02
2017-01-07T11:45:51.425Z,1021.97
2017-01-07T11:47:05.344Z,1021.88
2017-01-07T11:48:18.799Z,1021.86
2017-01-07T11:49:32.663Z,1021.82
2017-01-07T11:50:48.265Z,1021.84
2017-01-07T11:52:03.126Z,1021.85
2017-01-07T11:53:16.657Z,1021.83
2017-01-07T11:54:30.094Z,1021.81
2017-01-07T11:55:43.876Z,1021.77
2017-01-07T11:56:57.779Z,1021.73
2017-01-07T11:58:11.389Z,1021.72
2017-01-07T11:59:24.821Z,1021.69
2017-01-07T12:00:38.347Z,1021.69
2017-01-07T12:01:51.822Z,1021.66
2017-01-07T12:03:06.589Z,1021.62
2017-01-07T12:04:20.101Z,1021.63
2017-01-07T12:05:33.581Z,1021.58
2017-01-07T12:06:47.054Z,1021.63
2017-01-07T12:08:00.705Z,1021.61
2017-01-07T12:09:14.194Z,1021.57
2017-01-07T12:10:27.621Z,1021.56
2017-01-07T12:11:41.135Z,1021.53
2017-01-07T12:12:55.179Z,1021.52
2017-01-07T12:14:08.729Z,1021.58
2017-01-07T12:15:22.476Z,1021.6
2017-01-07T12:16:36.251Z,1021.56
2017-01-07T12:17:49.735Z,1021.59
2017-01-07T12:19:03.282Z,1021.54
2017-01-07T12:20:16.931Z,1021.52
2017-01-07T12:21:30.403Z,1021.47
2017-01-07T12:22:43.859Z,1021.45
2017-01-07T12:23:57.467Z,1021.52
2017-01-07T12:25:11.254Z,1021.48
2017-01-07T12:26:24.902Z,1021.47
2017-01-07T12:27:38.453Z,1021.41
2017-01-07T12:28:53.442Z,1021.39
2017-01-07T12:30:06.968Z,1021.32
2017-01-07T12:31:20.899Z,1021.29
2017-01-07T12:32:34.330Z,1021.18
2017-01-07T12:33:47.765Z,1021.15
2017-01-07T12:35:01.384Z,1021.1
2017-01-07T12:36:14.812Z,1021.09
2017-01-07T12:37:28.221Z,1021.05
2017-01-07T12:38:41.648Z,1020.98
2017-01-07T12:39:55.255Z,1020.92
2017-01-07T12:41:08.823Z,1020.98
2017-01-07T12:42:22.304Z,1020.93
2017-01-07T12:43:35.735Z,1020.91
2017-01-07T12:44:49.299Z,1020.89
2017-01-07T12:46:02.729Z,1020.88
2017-01-07T12:47:16.200Z,1020.84
2017-01-07T12:48:29.705Z,1020.82
2017-01-07T12:49:43.397Z,1020.85
2017-01-07T12:50:56.928Z,1020.85
2017-01-07T12:52:10.633Z,1020.81
2017-01-07T12:53:29.191Z,1020.87
2017-01-07T12:54:42.650Z,1020.77
2017-01-07T12:55:56.208Z,1020.75
2017-01-07T12:57:10.481Z,1020.75
2017-01-07T12:58:23.947Z,1020.76
2017-01-07T12:59:37.810Z,1020.7
2017-01-07T13:00:51.463Z,1020.72
2017-01-07T13:02:04.963Z,1020.72
2017-01-07T13:03:18.475Z,1020.76
2017-01-07T13:04:31.942Z,1020.7
2017-01-07T13:05:45.482Z,1020.75
2017-01-07T13:07:01.198Z,1020.71
2017-01-07T13:08:14.725Z,1020.76
2017-01-07T13:09:28.651Z,1020.76
2017-01-07T13:10:42.617Z,1020.68
2017-01-07T13:11:56.331Z,1020.63
2017-01-07T13:13:10.260Z,1020.61
2017-01-07T13:14:23.833Z,1020.6
2017-01-07T13:15:37.336Z,1020.6
2017-01-07T13:16:50.986Z,1020.57
2017-01-07T13:18:04.412Z,1020.62
2017-01-07T13:19:17.879Z,1020.65
2017-01-07T13:20:31.679Z,1020.67
2017-01-07T13:21:45.268Z,1020.68
2017-01-07T13:22:58.709Z,1020.63
2017-01-07T13:24:12.157Z,1020.69
2017-01-07T13:25:25.626Z,1020.66
2017-01-07T13:26:39.307Z,1020.69
2017-01-07T13:27:54.016Z,1020.7
2017-01-07T13:29:07.604Z,1020.69
2017-01-07T13:30:21.218Z,1020.64
2017-01-07T13:31:34.930Z,1020.64
2017-01-07T13:32:49.705Z,1020.68
2017-01-07T13:34:03.235Z,1020.64
2017-01-07T13:35:17.080Z,1020.66
2017-01-07T13:36:30.803Z,1020.67
2017-01-07T13:37:44.667Z,1020.63
2017-01-07T13:38:58.227Z,1020.59
2017-01-07T13:40:11.691Z,1020.57
2017-01-07T13:41:25.972Z,1020.56
2017-01-07T13:42:39.460Z,1020.43
2017-01-07T13:43:53.057Z,1020.44
2017-01-07T13:45:06.636Z,1020.43
2017-01-07T13:46:21.078Z,1020.48
2017-01-07T13:47:34.495Z,1020.43
2017-01-07T13:48:48.040Z,1020.42
2017-01-07T13:50:01.544Z,1020.42
2017-01-07T13:51:15.047Z,1020.38
2017-01-07T13:52:28.617Z,1020.36
2017-01-07T13:53:43.488Z,1020.38
2017-01-07T13:54:57.010Z,1020.38
2017-01-07T13:56:10.443Z,1020.32
2017-01-07T13:57:24.046Z,1020.34
2017-01-07T13:58:37.588Z,1020.34
2017-01-07T13:59:51.445Z,1020.3
2017-01-07T14:01:04.909Z,1020.28
2017-01-07T14:02:18.388Z,1020.25
2017-01-07T14:03:31.896Z,1020.21
2017-01-07T14:04:46.613Z,1020.21
2017-01-07T14:06:00.247Z,1020.2
2017-01-07T14:07:13.730Z,1020.22
2017-01-07T14:08:27.200Z,1020.25
2017-01-07T14:09:40.772Z,1020.25
2017-01-07T14:10:54.203Z,1020.24
2017-01-07T14:12:07.694Z,1020.23
2017-01-07T14:13:21.497Z,1020.25
2017-01-07T14:14:35.123Z,1020.22
2017-01-07T14:15:48.671Z,1020.2
2017-01-07T14:17:02.141Z,1020.2
2017-01-07T14:18:15.614Z,1020.16
2017-01-07T14:19:29.061Z,1020.19
2017-01-07T14:20:42.891Z,1020.16
2017-01-07T14:21:56.461Z,1020.14
2017-01-07T14:23:12.233Z,1020.1
2017-01-07T14:24:25.726Z,1020.06
2017-01-07T14:25:39.390Z,1020.06
2017-01-07T14:26:53.245Z,1020.03
2017-01-07T14:28:06.857Z,1019.99
2017-01-07T14:29:21.508Z,1019.94
2017-01-07T14:30:35.012Z,1019.9
2017-01-07T14:31:49.047Z,1019.93
2017-01-07T14:33:02.536Z,1019.94
2017-01-07T14:34:16.028Z,1019.9
2017-01-07T14:35:29.921Z,1019.88
2017-01-07T14:36:43.708Z,1019.87
2017-01-07T14:37:57.312Z,1019.89
2017-01-07T14:39:11.954Z,1019.88
2017-01-07T14:40:25.391Z,1019.9
2017-01-07T14:41:39.080Z,1019.86
2017-01-07T14:42:52.578Z,1019.87
2017-01-07T14:44:06.026Z,1019.82
2017-01-07T14:45:19.497Z,1019.81
2017-01-07T14:46:34.060Z,1019.8
2017-01-07T14:47:48.652Z,1019.72
2017-01-07T14:49:02.092Z,1019.69
2017-01-07T14:50:15.694Z,1019.76
2017-01-07T14:51:29.299Z,1019.75
2017-01-07T14:52:43.623Z,1019.73
2017-01-07T14:54:03.040Z,1019.75
2017-01-07T14:55:16.628Z,1019.75
2017-01-07T14:56:30.067Z,1019.75
2017-01-07T14:57:43.791Z,1019.75
2017-01-07T14:58:58.284Z,1019.74
2017-01-07T15:00:12.284Z,1019.75